createdAt,value
2019-05-22T00:04:18.358Z,67.45
2019-05-22T00:09:24.692Z,67.71
2019-05-22T00:14:29.526Z,67.43
2019-05-22T00:19:36.822Z,67.92
2019-05-22T00:24:44.394Z,66.68
2019-05-22T00:29:51.306Z,67.83
2019-05-22T00:34:56.906Z,68.41
2019-05-22T00:40:04.166Z,68.45
2019-05-22T00:45:13.041Z,68.74
2019-05-22T00:50:22.328Z,68.81
2019-05-22T00:55:33.968Z,69.59
2019-05-22T01:00:49.732Z,70.60
2019-05-22T01:05:55.628Z,70.19
2019-05-22T01:11:01.226Z,69.54
2019-05-22T01:16:07.573Z,70.19
2019-05-22T01:21:15.058Z,70.06
2019-05-22T01:26:21.574Z,70.57
2019-05-22T01:31:27.887Z,71.75
2019-05-22T01:36:35.230Z,71.83
2019-05-22T01:41:41.851Z,72.60
2019-05-22T01:46:46.417Z,72.40
2019-05-22T01:51:51.509Z,72.02
2019-05-22T01:56:57.787Z,71.40
2019-05-22T02:02:04.525Z,71.67
2019-05-22T02:07:10.029Z,71.46
2019-05-22T02:12:28.111Z,71.11
2019-05-22T02:17:35.761Z,71.29
2019-05-22T02:22:40.940Z,71.31
2019-05-22T02:27:47.541Z,71.91
2019-05-22T02:32:53.077Z,72.06
2019-05-22T02:37:58.862Z,72.11
2019-05-22T02:43:03.856Z,72.53
2019-05-22T02:48:09.563Z,72.36
2019-05-22T02:53:15.074Z,72.43
2019-05-22T02:58:21.250Z,72.30
2019-05-22T03:03:26.991Z,72.29
2019-05-22T03:08:54.671Z,72.93
2019-05-22T03:14:03.664Z,72.69
2019-05-22T03:19:10.622Z,72.76
2019-05-22T03:24:16.215Z,73.18
2019-05-22T03:29:24.141Z,72.88
2019-05-22T03:34:29.160Z,72.34
2019-05-22T03:39:34.907Z,72.41
2019-05-22T03:44:41.049Z,72.33
2019-05-22T03:49:46.779Z,71.89
2019-05-22T03:54:52.524Z,70.92
2019-05-22T03:59:57.882Z,65.62
2019-05-22T04:05:03.270Z,60.50
2019-05-22T04:10:10.479Z,56.31
2019-05-22T04:15:15.822Z,53.54
2019-05-22T04:20:22.015Z,51.26
2019-05-22T04:25:26.956Z,49.21
2019-05-22T04:30:32.394Z,49.14
2019-05-22T04:35:40.355Z,49.94
2019-05-22T04:40:48.954Z,49.30
2019-05-22T04:45:54.198Z,44.76
2019-05-22T04:51:02.240Z,42.08
2019-05-22T04:56:07.347Z,41.75
2019-05-22T05:01:12.175Z,39.71
2019-05-22T05:06:18.359Z,41.19
2019-05-22T05:11:23.003Z,46.75
2019-05-22T05:16:27.680Z,43.01
2019-05-22T05:21:32.489Z,38.86
2019-05-22T05:26:37.694Z,38.16
2019-05-22T05:31:42.457Z,35.82
2019-05-22T05:36:47.753Z,38.04
2019-05-22T05:41:53.001Z,35.51
2019-05-22T05:46:57.829Z,33.59
2019-05-22T05:52:03.897Z,31.61
2019-05-22T05:57:38.665Z,32.89
2019-05-22T06:02:56.059Z,31.63
2019-05-22T06:07:49.940Z,31.04
2019-05-22T06:12:54.725Z,31.17
2019-05-22T06:18:28.076Z,31.95
2019-05-22T06:23:42.472Z,39.00
2019-05-22T06:28:47.994Z,39.24
2019-05-22T06:33:52.676Z,38.66
2019-05-22T06:39:00.941Z,39.09
2019-05-22T06:44:36.923Z,40.30
2019-05-22T06:49:43.972Z,38.10
2019-05-22T06:54:49.017Z,36.64
2019-05-22T07:00:11.301Z,37.61
2019-05-22T07:05:00.632Z,33.22
2019-05-22T07:10:06.981Z,30.92
2019-05-22T07:15:23.189Z,28.93
2019-05-22T07:20:31.113Z,27.90
2019-05-22T07:25:37.581Z,26.73
2019-05-22T07:30:42.347Z,25.04
2019-05-22T07:36:07.745Z,24.56
2019-05-22T07:40:54.089Z,24.99
2019-05-22T07:45:58.978Z,28.19
2019-05-22T07:51:04.050Z,25.34
2019-05-22T07:56:10.306Z,24.65
2019-05-22T08:01:18.201Z,28.55
2019-05-22T08:06:23.083Z,31.61
2019-05-22T08:11:28.032Z,33.81
2019-05-22T08:16:33.842Z,37.13
2019-05-22T08:21:39.173Z,33.10
2019-05-22T08:26:53.811Z,32.25
2019-05-22T08:31:50.899Z,31.40
2019-05-22T08:36:55.667Z,32.42
2019-05-22T08:42:02.127Z,32.94
2019-05-22T08:47:08.354Z,33.17
2019-05-22T08:52:22.905Z,28.03
2019-05-22T08:57:21.088Z,31.43
2019-05-22T09:02:25.982Z,34.80
2019-05-22T09:07:31.719Z,35.33
2019-05-22T09:12:36.625Z,36.31
2019-05-22T09:17:41.177Z,39.44
2019-05-22T09:22:46.711Z,40.87
2019-05-22T09:27:52.101Z,40.97
2019-05-22T09:32:58.214Z,34.71
2019-05-22T09:38:02.966Z,35.48
2019-05-22T09:43:07.869Z,34.87
2019-05-22T09:48:13.028Z,30.55
2019-05-22T09:53:18.127Z,30.01
2019-05-22T09:58:23.282Z,31.62
2019-05-22T10:03:28.273Z,33.58
2019-05-22T10:08:33.673Z,28.21
2019-05-22T10:13:38.353Z,26.57
2019-05-22T10:18:42.978Z,29.41
2019-05-22T10:23:47.880Z,30.71
2019-05-22T10:28:53.237Z,31.40
2019-05-22T10:33:57.937Z,34.40
2019-05-22T10:39:03.584Z,34.02
2019-05-22T10:44:08.587Z,35.27
2019-05-22T10:49:13.660Z,37.33
2019-05-22T10:54:18.367Z,33.40
2019-05-22T10:59:23.511Z,33.81
2019-05-22T11:04:29.760Z,35.27
2019-05-22T11:09:35.673Z,36.22
2019-05-22T11:14:40.632Z,36.00
2019-05-22T11:19:45.423Z,35.96
2019-05-22T11:24:50.158Z,35.50
2019-05-22T11:29:54.915Z,35.44
2019-05-22T11:34:59.586Z,34.61
2019-05-22T11:40:08.859Z,34.58
2019-05-22T11:45:16.325Z,35.68
2019-05-22T11:50:23.714Z,34.78
2019-05-22T11:55:44.292Z,35.15
2019-05-22T12:00:35.991Z,33.21
2019-05-22T12:05:40.774Z,33.58
2019-05-22T12:10:45.843Z,34.48
2019-05-22T12:15:50.673Z,32.47
2019-05-22T12:20:57.249Z,32.59
2019-05-22T12:26:01.880Z,31.33
2019-05-22T12:31:07.427Z,32.70
2019-05-22T12:36:14.162Z,32.58
2019-05-22T12:41:20.976Z,33.83
2019-05-22T12:46:27.262Z,33.26
2019-05-22T12:51:32.991Z,31.82
2019-05-22T12:56:37.910Z,31.54
2019-05-22T13:01:46.655Z,31.43
2019-05-22T13:06:52.235Z,30.98
2019-05-22T13:11:59.410Z,31.13
2019-05-22T13:17:06.361Z,30.49
2019-05-22T13:22:16.540Z,31.34
2019-05-22T13:27:22.761Z,29.84
2019-05-22T13:32:29.256Z,31.38
2019-05-22T13:37:34.277Z,30.20
2019-05-22T13:42:40.379Z,29.77
2019-05-22T13:47:45.036Z,31.20
2019-05-22T13:52:50.281Z,30.37
2019-05-22T13:57:55.440Z,29.53
2019-05-22T14:03:00.444Z,29.30
2019-05-22T14:08:08.194Z,29.18
2019-05-22T14:13:14.575Z,30.65
2019-05-22T14:18:19.613Z,30.77
2019-05-22T14:23:24.341Z,30.79
2019-05-22T14:28:30.727Z,30.22
2019-05-22T14:33:39.777Z,31.25
2019-05-22T14:38:43.215Z,30.47
2019-05-22T14:43:48.003Z,30.32
2019-05-22T14:48:52.735Z,30.58
2019-05-22T14:53:58.664Z,30.27
2019-05-22T14:59:04.794Z,30.97
2019-05-22T15:04:09.535Z,31.23
2019-05-22T15:09:14.298Z,31.64
2019-05-22T15:14:18.945Z,30.83
2019-05-22T15:19:24.097Z,31.84
2019-05-22T15:24:29.688Z,32.69
2019-05-22T15:29:34.328Z,33.24
2019-05-22T15:34:39.710Z,33.89
2019-05-22T15:39:45.110Z,33.33
2019-05-22T15:44:51.438Z,32.52
2019-05-22T15:49:56.668Z,31.66
2019-05-22T15:55:03.136Z,31.37
2019-05-22T16:00:10.502Z,32.00
2019-05-22T16:05:18.410Z,32.57
2019-05-22T16:10:23.958Z,33.54
2019-05-22T16:15:30.630Z,34.89
2019-05-22T16:20:37.414Z,55.88
2019-05-22T16:25:42.901Z,57.79
2019-05-22T16:30:47.999Z,64.01
2019-05-22T16:35:53.433Z,60.10
2019-05-22T16:40:58.448Z,69.49
2019-05-22T16:46:03.741Z,67.96
2019-05-22T16:51:09.947Z,70.22
2019-05-22T16:56:14.961Z,73.21
2019-05-22T17:01:21.796Z,72.77
2019-05-22T17:06:27.119Z,76.49
2019-05-22T17:11:33.354Z,73.82
2019-05-22T17:16:39.845Z,74.70
2019-05-22T17:21:46.073Z,74.64
2019-05-22T17:26:52.613Z,69.29
2019-05-22T17:31:58.402Z,72.51
2019-05-22T17:37:09.713Z,72.45
2019-05-22T17:42:20.852Z,74.11
2019-05-22T17:47:28.081Z,70.96
2019-05-22T17:52:32.798Z,75.43
2019-05-22T17:57:37.706Z,74.11
2019-05-22T18:02:43.947Z,75.01
2019-05-22T18:07:48.952Z,75.01
2019-05-22T18:12:54.003Z,71.60
2019-05-22T18:17:58.627Z,70.96
2019-05-22T18:23:04.209Z,70.96
2019-05-22T18:28:10.442Z,67.80
2019-05-22T18:33:16.279Z,60.71
2019-05-22T18:38:20.820Z,59.96
2019-05-22T18:43:25.362Z,61.83
2019-05-22T18:48:33.034Z,65.28
2019-05-22T18:53:36.453Z,70.34
2019-05-22T18:58:42.057Z,71.33
2019-05-22T19:03:46.653Z,70.57
2019-05-22T19:08:51.413Z,70.99
2019-05-22T19:13:56.421Z,72.95
2019-05-22T19:19:01.022Z,73.52
2019-05-22T19:24:05.913Z,75.58
2019-05-22T19:29:10.627Z,78.26
2019-05-22T19:34:17.086Z,81.65
2019-05-22T19:39:23.715Z,80.78
2019-05-22T19:44:29.112Z,80.82
2019-05-22T19:49:34.922Z,77.35
2019-05-22T19:54:45.667Z,79.32
2019-05-22T19:59:52.340Z,80.76
2019-05-22T20:05:00.408Z,80.92
2019-05-22T20:10:10.138Z,82.54
2019-05-22T20:15:16.104Z,82.81
2019-05-22T20:20:22.396Z,82.91
2019-05-22T20:25:28.359Z,82.72
2019-05-22T20:30:33.193Z,83.95
2019-05-22T20:35:38.155Z,83.87
2019-05-22T20:40:44.303Z,83.64
2019-05-22T20:45:51.171Z,83.73
2019-05-22T20:50:59.878Z,84.10
2019-05-22T20:56:05.423Z,84.33
2019-05-22T21:01:11.301Z,83.87
2019-05-22T21:06:17.252Z,85.26
2019-05-22T21:11:25.412Z,85.15
2019-05-22T21:16:30.759Z,85.28
2019-05-22T21:21:36.593Z,84.94
2019-05-22T21:26:42.736Z,85.09
2019-05-22T21:31:48.332Z,84.16
2019-05-22T21:36:53.973Z,83.60
2019-05-22T21:42:00.487Z,83.59
2019-05-22T21:47:06.747Z,84.29
2019-05-22T21:52:13.275Z,83.42
2019-05-22T21:57:18.574Z,81.12
2019-05-22T22:02:27.779Z,80.90
2019-05-22T22:07:35.224Z,81.56
2019-05-22T22:12:39.878Z,80.61
2019-05-22T22:17:46.370Z,80.63
2019-05-22T22:22:52.528Z,81.37
2019-05-22T22:27:58.328Z,81.73
2019-05-22T22:33:10.200Z,82.86
2019-05-22T22:38:15.989Z,81.86
2019-05-22T22:43:23.092Z,83.05
2019-05-22T22:48:32.390Z,82.61
2019-05-22T22:53:36.914Z,82.45
2019-05-22T22:58:42.649Z,82.93
2019-05-22T23:03:50.956Z,82.21
2019-05-22T23:08:55.961Z,82.25
2019-05-22T23:14:03.394Z,80.38
2019-05-22T23:19:11.330Z,79.67
2019-05-22T23:24:19.191Z,79.61
2019-05-22T23:29:25.098Z,80.66
2019-05-22T23:34:30.855Z,79.61
2019-05-22T23:39:36.365Z,78.71
2019-05-22T23:44:42.040Z,79.15
2019-05-22T23:49:46.965Z,79.84
2019-05-22T23:54:52.466Z,80.67
2019-05-22T23:59:58.978Z,80.09
